Time;durP1;ratioP1;P1;durP2;ratioP2;P2;SDS_P1;SDS_P2;PMS_P1;PMS_P2;Temp;Humidity;BMP_temperature;BMP_pressure;BME280_temperature;BME280_humidity;BME280_pressure;Samples;Min_cycle;Max_cycle;Signal;HPM_P1;HPM_P2
2024/01/27 00:00:38;;;;;;;0.00;0.00;;;4.70;88.40;;;;;;4969500;28;20520;-75
2024/01/27 00:03:04;;;;;;;0.43;0.43;;;4.60;88.40;;;;;;4961743;28;20126;-75
2024/01/27 00:05:29;;;;;;;0.05;0.05;;;4.70;88.50;;;;;;4970188;28;20090;-75
2024/01/27 00:07:55;;;;;;;1.08;0.95;;;4.70;88.70;;;;;;4968946;28;20050;-73
2024/01/27 00:10:20;;;;;;;0.73;0.45;;;4.70;88.60;;;;;;4970909;28;20423;-74
2024/01/27 00:12:46;;;;;;;0.10;0.10;;;4.70;88.60;;;;;;4968041;28;20417;-74
2024/01/27 00:15:12;;;;;;;0.03;0.03;;;4.80;88.50;;;;;;4970665;28;20047;-74
2024/01/27 00:17:39;;;;;;;0.00;0.00;;;4.90;88.40;;;;;;4969750;28;20116;-74
2024/01/27 00:20:05;;;;;;;0.20;0.20;;;4.90;88.40;;;;;;4969957;28;20053;-74
2024/01/27 00:22:31;;;;;;;0.00;0.00;;;4.90;88.30;;;;;;4970369;28;20050;-74
2024/01/27 00:24:57;;;;;;;0.10;0.10;;;4.90;88.20;;;;;;4966824;28;20050;-74
2024/01/27 00:27:22;;;;;;;0.00;0.00;;;4.90;88.10;;;;;;4974128;28;20093;-74
2024/01/27 00:29:48;;;;;;;0.00;0.00;;;4.90;88.20;;;;;;4976013;28;20050;-74
2024/01/27 00:32:14;;;;;;;0.00;0.00;;;4.90;88.20;;;;;;4970319;28;20043;-74
2024/01/27 00:34:39;;;;;;;0.00;0.00;;;4.80;88.10;;;;;;4965688;28;20047;-73
2024/01/27 00:37:05;;;;;;;0.10;0.10;;;4.80;88.10;;;;;;4971600;28;20121;-73
2024/01/27 00:39:32;;;;;;;0.25;0.25;;;4.70;88.10;;;;;;4980487;28;20051;-73
2024/01/27 00:41:58;;;;;;;0.00;0.00;;;4.70;88.20;;;;;;4969386;28;20463;-74
2024/01/27 00:44:24;;;;;;;0.10;0.10;;;4.70;88.10;;;;;;4969690;28;20065;-73
2024/01/27 00:46:50;;;;;;;0.03;0.03;;;4.60;88.10;;;;;;4966192;28;20050;-73
2024/01/27 00:49:15;;;;;;;1.35;1.25;;;4.60;88.00;;;;;;4970544;28;20134;-74
2024/01/27 00:51:41;;;;;;;0.10;0.10;;;4.60;88.10;;;;;;4968619;28;20070;-73
2024/01/27 00:54:07;;;;;;;0.00;0.00;;;4.50;88.30;;;;;;4968456;28;20073;-73
2024/01/27 00:56:32;;;;;;;0.10;0.10;;;4.50;88.20;;;;;;4971957;28;20400;-74
2024/01/27 00:58:58;;;;;;;0.00;0.00;;;4.50;88.10;;;;;;4965705;28;20467;-73
2024/01/27 01:01:23;;;;;;;0.10;0.10;;;4.50;88.30;;;;;;4969603;28;20047;-73
2024/01/27 01:03:49;;;;;;;0.10;0.10;;;4.50;88.30;;;;;;4968927;28;20045;-73
2024/01/27 01:06:15;;;;;;;0.10;0.10;;;4.40;88.40;;;;;;4968996;28;20039;-73
2024/01/27 01:08:40;;;;;;;0.10;0.10;;;4.50;88.50;;;;;;4953410;28;20082;-73
2024/01/27 01:11:06;;;;;;;0.00;0.00;;;4.50;88.50;;;;;;4952833;28;20484;-73
2024/01/27 01:13:32;;;;;;;0.00;0.00;;;4.50;88.50;;;;;;4960189;28;20882;-73
2024/01/27 01:15:57;;;;;;;0.10;0.10;;;4.50;88.80;;;;;;4959328;28;20051;-73
2024/01/27 01:18:23;;;;;;;0.00;0.00;;;4.50;88.70;;;;;;4950186;28;20043;-73
2024/01/27 01:20:48;;;;;;;0.05;0.05;;;4.50;88.80;;;;;;4963092;28;20065;-73
2024/01/27 01:23:14;;;;;;;0.00;0.00;;;4.50;88.90;;;;;;4969435;28;20081;-73
2024/01/27 01:25:40;;;;;;;0.22;0.22;;;4.50;89.00;;;;;;4962672;28;20039;-73
2024/01/27 01:28:05;;;;;;;0.00;0.00;;;4.40;88.90;;;;;;4950492;28;20102;-74
2024/01/27 01:30:31;;;;;;;0.00;0.00;;;4.50;88.80;;;;;;4956726;28;20894;-74
2024/01/27 01:32:57;;;;;;;0.03;0.03;;;4.40;88.80;;;;;;4955053;28;20377;-73
2024/01/27 01:35:23;;;;;;;1.35;0.82;;;4.40;88.80;;;;;;4969611;28;20427;-73
2024/01/27 01:37:48;;;;;;;0.00;0.00;;;4.30;88.70;;;;;;4968161;28;20117;-74
2024/01/27 01:40:15;;;;;;;0.20;0.20;;;4.40;88.80;;;;;;4969055;28;20043;-74
2024/01/27 01:42:41;;;;;;;0.00;0.00;;;4.40;88.80;;;;;;4969274;28;20051;-73
2024/01/27 01:45:09;;;;;;;1.27;1.17;;;4.30;88.90;;;;;;4968796;28;20134;-73
2024/01/27 01:47:34;;;;;;;0.00;0.00;;;4.30;88.90;;;;;;4982160;28;20125;-73
2024/01/27 01:50:01;;;;;;;0.00;0.00;;;4.30;89.00;;;;;;4969765;28;20802;-73
2024/01/27 01:52:26;;;;;;;0.10;0.10;;;4.30;89.00;;;;;;4969225;28;20047;-73
2024/01/27 01:54:52;;;;;;;0.00;0.00;;;4.20;89.00;;;;;;4967676;28;20065;-73
2024/01/27 01:57:18;;;;;;;0.08;0.08;;;4.30;89.00;;;;;;4967164;28;20043;-73
2024/01/27 01:59:44;;;;;;;0.00;0.00;;;4.30;89.00;;;;;;4969086;28;20130;-73
2024/01/27 02:02:09;;;;;;;0.10;0.10;;;4.20;89.00;;;;;;4968326;28;20035;-73
2024/01/27 02:04:42;;;;;;;2.55;1.20;;;4.20;89.10;;;;;;4968664;28;20110;-73
2024/01/27 02:10:48;;;;;;;0.55;0.55;;;4.20;89.20;;;;;;4968031;28;20046;-73
2024/01/27 02:13:19;;;;;;;0.00;0.00;;;4.20;89.30;;;;;;4968004;28;20047;-73
2024/01/27 02:15:45;;;;;;;0.00;0.00;;;4.30;89.30;;;;;;4968945;28;20451;-73
2024/01/27 02:18:11;;;;;;;0.00;0.00;;;4.30;89.30;;;;;;4956391;28;20047;-73
2024/01/27 02:20:38;;;;;;;0.10;0.10;;;4.30;89.20;;;;;;4949455;28;20054;-73
2024/01/27 02:23:04;;;;;;;0.00;0.00;;;4.40;89.20;;;;;;4970881;28;20062;-73
2024/01/27 02:25:33;;;;;;;0.00;0.00;;;4.30;89.30;;;;;;4960339;28;20058;-73
2024/01/27 02:28:00;;;;;;;0.10;0.10;;;4.30;89.20;;;;;;4962322;28;20054;-73
2024/01/27 02:30:25;;;;;;;0.00;0.00;;;4.30;89.30;;;;;;4969760;28;20043;-73
2024/01/27 02:32:52;;;;;;;0.00;0.00;;;4.30;89.40;;;;;;4968799;28;20489;-73
2024/01/27 02:35:17;;;;;;;0.00;0.00;;;4.30;89.40;;;;;;4969988;28;20104;-74
2024/01/27 02:37:43;;;;;;;0.00;0.00;;;4.30;89.50;;;;;;4969978;28;20034;-73
2024/01/27 02:40:09;;;;;;;0.00;0.00;;;4.30;89.40;;;;;;4970087;28;20523;-73
2024/01/27 02:42:36;;;;;;;0.05;0.05;;;4.30;89.40;;;;;;4968333;28;20065;-74
2024/01/27 02:45:02;;;;;;;58.90;2.60;;;4.30;89.30;;;;;;4969323;28;20047;-73
2024/01/27 02:47:28;;;;;;;0.05;0.05;;;4.20;89.20;;;;;;4966311;28;20361;-73
2024/01/27 02:49:54;;;;;;;0.00;0.00;;;4.20;89.20;;;;;;4969203;28;20047;-73
2024/01/27 02:52:19;;;;;;;0.00;0.00;;;4.20;89.50;;;;;;4968279;28;20427;-73
2024/01/27 02:54:45;;;;;;;0.00;0.00;;;4.20;89.50;;;;;;4968656;28;20121;-73
2024/01/27 02:57:11;;;;;;;0.00;0.00;;;4.10;89.50;;;;;;4969529;28;20312;-73
2024/01/27 02:59:38;;;;;;;0.10;0.10;;;4.10;90.00;;;;;;4971350;28;20416;-73
2024/01/27 03:02:05;;;;;;;0.03;0.03;;;4.20;90.10;;;;;;4971654;28;20555;-73
2024/01/27 03:04:30;;;;;;;0.00;0.00;;;4.20;90.00;;;;;;4972177;28;20057;-73
2024/01/27 03:06:56;;;;;;;0.00;0.00;;;4.10;89.90;;;;;;4972364;28;20043;-73
2024/01/27 03:09:21;;;;;;;0.00;0.00;;;4.20;89.90;;;;;;4971915;28;20054;-73
2024/01/27 03:11:48;;;;;;;0.00;0.00;;;4.20;89.90;;;;;;4971746;28;20046;-73
2024/01/27 03:14:14;;;;;;;0.00;0.00;;;4.20;89.90;;;;;;4972585;28;20088;-73
2024/01/27 03:16:40;;;;;;;0.00;0.00;;;4.10;89.90;;;;;;4971228;28;20042;-73
2024/01/27 03:19:06;;;;;;;0.10;0.10;;;4.20;90.00;;;;;;4967786;28;20511;-73
2024/01/27 03:21:32;;;;;;;0.00;0.00;;;4.20;90.00;;;;;;4971979;28;20062;-74
2024/01/27 03:23:58;;;;;;;0.10;0.10;;;4.20;90.00;;;;;;4970996;28;20106;-73
2024/01/27 03:26:24;;;;;;;0.05;0.05;;;4.10;90.10;;;;;;4969639;28;20438;-73
2024/01/27 03:28:50;;;;;;;0.00;0.00;;;4.10;90.30;;;;;;4952631;28;20515;-73
2024/01/27 03:31:16;;;;;;;0.10;0.10;;;4.10;90.20;;;;;;4968404;28;20043;-73
2024/01/27 03:33:41;;;;;;;0.00;0.00;;;4.10;90.20;;;;;;4969406;28;20082;-73
2024/01/27 03:36:11;;;;;;;0.10;0.10;;;4.10;90.30;;;;;;4970766;28;20418;-73
2024/01/27 03:38:39;;;;;;;0.10;0.10;;;4.10;90.30;;;;;;4971466;28;20050;-73
2024/01/27 03:41:04;;;;;;;0.00;0.00;;;4.10;90.30;;;;;;4971248;28;20062;-73
2024/01/27 03:43:31;;;;;;;0.43;0.40;;;4.10;90.40;;;;;;4970454;28;20564;-73
2024/01/27 03:45:57;;;;;;;0.00;0.00;;;4.10;90.40;;;;;;4971110;28;20137;-73
2024/01/27 03:48:23;;;;;;;0.22;0.22;;;4.20;90.40;;;;;;4969706;28;20696;-73
2024/01/27 03:50:48;;;;;;;0.00;0.00;;;4.10;90.40;;;;;;4970595;28;20034;-74
2024/01/27 03:53:14;;;;;;;0.90;0.90;;;4.20;90.40;;;;;;4969883;28;20522;-73
2024/01/27 03:55:40;;;;;;;0.10;0.10;;;4.20;90.40;;;;;;4969605;28;20408;-73
2024/01/27 03:58:06;;;;;;;0.00;0.00;;;4.10;90.30;;;;;;4955431;28;20055;-73
2024/01/27 04:00:33;;;;;;;0.00;0.00;;;4.20;90.30;;;;;;4961742;28;20148;-73
2024/01/27 04:03:02;;;;;;;0.08;0.08;;;4.20;90.30;;;;;;4969952;28;20394;-73
2024/01/27 04:05:29;;;;;;;0.00;0.00;;;4.10;90.30;;;;;;4969442;28;20053;-73
2024/01/27 04:07:55;;;;;;;0.10;0.10;;;4.20;90.30;;;;;;4968746;28;20081;-73
2024/01/27 04:10:22;;;;;;;0.00;0.00;;;4.20;90.30;;;;;;4968331;28;20086;-73
2024/01/27 04:12:47;;;;;;;0.05;0.05;;;4.20;90.30;;;;;;4971449;28;20102;-73
2024/01/27 04:15:13;;;;;;;0.10;0.10;;;4.20;90.10;;;;;;4953891;28;20079;-73
2024/01/27 04:17:42;;;;;;;0.00;0.00;;;4.30;90.20;;;;;;4966282;28;20935;-73
2024/01/27 04:20:09;;;;;;;0.00;0.00;;;4.20;90.10;;;;;;4970518;28;20563;-73
2024/01/27 04:22:35;;;;;;;0.00;0.00;;;4.10;90.10;;;;;;4970220;28;20064;-73
2024/01/27 04:25:01;;;;;;;0.00;0.00;;;4.20;90.20;;;;;;4969843;28;20673;-73
2024/01/27 04:27:28;;;;;;;0.10;0.10;;;4.20;90.10;;;;;;4970163;28;20054;-73
2024/01/27 04:29:53;;;;;;;0.10;0.10;;;4.20;90.10;;;;;;4970188;28;20113;-73
2024/01/27 04:32:21;;;;;;;0.00;0.00;;;4.20;90.20;;;;;;4960939;28;20454;-73
2024/01/27 04:34:47;;;;;;;0.00;0.00;;;4.20;90.20;;;;;;4951299;28;20065;-73
2024/01/27 04:37:12;;;;;;;0.00;0.00;;;4.20;90.20;;;;;;4963297;28;20054;-73
2024/01/27 04:39:38;;;;;;;0.80;0.80;;;4.20;90.10;;;;;;4970992;28;20531;-74
2024/01/27 04:42:06;;;;;;;0.05;0.05;;;4.10;90.00;;;;;;4972774;28;20113;-73
2024/01/27 04:44:32;;;;;;;0.00;0.00;;;4.00;90.00;;;;;;4968463;28;20050;-73
2024/01/27 04:46:57;;;;;;;0.00;0.00;;;4.10;90.10;;;;;;4970049;28;20082;-73
2024/01/27 04:49:23;;;;;;;0.10;0.10;;;4.00;90.10;;;;;;4970829;28;20039;-73
2024/01/27 04:51:49;;;;;;;0.10;0.10;;;3.90;90.10;;;;;;4966175;28;20043;-73
2024/01/27 04:54:14;;;;;;;0.03;0.03;;;4.00;90.20;;;;;;4970044;28;20039;-73
2024/01/27 04:56:40;;;;;;;0.00;0.00;;;4.00;90.20;;;;;;4969990;28;20042;-73
2024/01/27 04:59:06;;;;;;;0.10;0.10;;;4.00;90.20;;;;;;4951644;28;20488;-73
2024/01/27 05:01:33;;;;;;;0.00;0.00;;;3.90;90.20;;;;;;4957566;28;20082;-73
2024/01/27 05:03:58;;;;;;;0.10;0.10;;;4.00;90.30;;;;;;4962465;28;20940;-73
2024/01/27 05:06:24;;;;;;;0.00;0.00;;;3.90;90.30;;;;;;4951179;28;20043;-73
2024/01/27 05:08:50;;;;;;;0.00;0.00;;;4.00;90.20;;;;;;4963240;28;20054;-73
2024/01/27 05:11:25;;;;;;;0.00;0.00;;;3.90;90.30;;;;;;4967798;28;20055;-73
2024/01/27 05:13:50;;;;;;;0.00;0.00;;;3.90;90.30;;;;;;4963128;28;20094;-74
2024/01/27 05:16:16;;;;;;;2.05;1.85;;;4.00;90.30;;;;;;4950478;28;20087;-73
2024/01/27 05:18:42;;;;;;;0.05;0.05;;;3.90;90.40;;;;;;4960287;28;20090;-73
2024/01/27 05:21:07;;;;;;;0.15;0.15;;;4.00;90.30;;;;;;4965327;28;20507;-73
2024/01/27 05:23:33;;;;;;;0.00;0.00;;;3.90;90.40;;;;;;4967441;28;20420;-73
2024/01/27 05:25:59;;;;;;;0.03;0.03;;;3.90;90.50;;;;;;4948761;28;20541;-73
2024/01/27 05:28:24;;;;;;;0.70;0.70;;;3.90;90.60;;;;;;4957288;28;20122;-73
2024/01/27 05:30:50;;;;;;;0.00;0.00;;;3.90;90.60;;;;;;4969300;28;20078;-73
2024/01/27 05:33:16;;;;;;;0.00;0.00;;;3.80;90.60;;;;;;4968309;28;20054;-73
2024/01/27 05:35:42;;;;;;;0.00;0.00;;;3.80;90.70;;;;;;4960629;28;20147;-73
2024/01/27 05:38:08;;;;;;;0.10;0.10;;;3.90;90.80;;;;;;4969561;28;20070;-73
2024/01/27 05:40:33;;;;;;;0.00;0.00;;;3.90;90.80;;;;;;4955536;28;20062;-73
2024/01/27 05:42:59;;;;;;;0.08;0.08;;;3.90;90.80;;;;;;4959114;28;20039;-73
2024/01/27 05:45:26;;;;;;;1.10;1.10;;;3.90;90.80;;;;;;4966864;28;20057;-73
2024/01/27 05:47:52;;;;;;;0.10;0.10;;;3.80;91.00;;;;;;4967628;28;20058;-73
2024/01/27 05:50:18;;;;;;;0.00;0.00;;;3.80;91.20;;;;;;4966815;28;20047;-74
2024/01/27 05:52:43;;;;;;;0.00;0.00;;;3.80;91.10;;;;;;4968994;28;20456;-74
2024/01/27 05:55:09;;;;;;;3.13;1.33;;;3.80;91.10;;;;;;4957447;28;20047;-73
2024/01/27 05:57:35;;;;;;;0.00;0.00;;;3.70;91.30;;;;;;4982294;28;20500;-73
2024/01/27 06:00:01;;;;;;;0.00;0.00;;;3.80;91.20;;;;;;4967635;28;20058;-73
2024/01/27 06:02:27;;;;;;;1.65;1.20;;;3.70;91.30;;;;;;4966833;28;20038;-72
2024/01/27 06:04:52;;;;;;;0.00;0.00;;;3.70;91.30;;;;;;4967384;28;20440;-73
2024/01/27 06:07:18;;;;;;;0.05;0.05;;;3.80;91.40;;;;;;4963255;28;20042;-73
2024/01/27 06:09:44;;;;;;;0.00;0.00;;;3.80;91.30;;;;;;4967869;28;20038;-72
2024/01/27 06:12:09;;;;;;;0.10;0.10;;;3.90;91.40;;;;;;4966768;28;20087;-72
2024/01/27 06:14:35;;;;;;;0.10;0.10;;;3.80;91.40;;;;;;4967754;28;20049;-73
2024/01/27 06:17:04;;;;;;;0.00;0.00;;;3.80;91.40;;;;;;4965968;28;20726;-72
2024/01/27 06:19:30;;;;;;;0.05;0.05;;;3.80;91.40;;;;;;4966478;28;20039;-72
2024/01/27 06:21:55;;;;;;;0.00;0.00;;;3.90;91.30;;;;;;4967114;28;20436;-73
2024/01/27 06:24:21;;;;;;;0.08;0.08;;;3.90;91.30;;;;;;4964647;28;20424;-73
2024/01/27 06:26:46;;;;;;;0.08;0.08;;;3.80;91.30;;;;;;4964987;28;20446;-73
2024/01/27 06:29:12;;;;;;;0.00;0.00;;;3.80;91.60;;;;;;4963054;28;20051;-73
2024/01/27 06:31:38;;;;;;;0.10;0.10;;;3.80;91.70;;;;;;4967681;28;20043;-72
2024/01/27 06:34:03;;;;;;;0.00;0.00;;;3.80;91.80;;;;;;4965260;28;20050;-72
2024/01/27 06:36:30;;;;;;;1.50;1.45;;;3.80;91.80;;;;;;4966405;28;20043;-73
2024/01/27 06:38:55;;;;;;;0.00;0.00;;;3.80;91.60;;;;;;4960675;28;20054;-73
2024/01/27 06:41:21;;;;;;;0.35;0.32;;;3.80;91.70;;;;;;4966672;28;20101;-72
2024/01/27 06:43:47;;;;;;;0.03;0.03;;;3.80;91.80;;;;;;4963239;28;20157;-73
2024/01/27 06:46:13;;;;;;;0.00;0.00;;;3.80;91.90;;;;;;4970437;28;20066;-73
2024/01/27 06:48:38;;;;;;;0.30;0.30;;;3.80;91.90;;;;;;4965938;28;20081;-73
2024/01/27 06:51:05;;;;;;;0.32;0.32;;;3.80;92.00;;;;;;4965763;28;20644;-73
2024/01/27 06:53:30;;;;;;;0.00;0.00;;;3.80;92.00;;;;;;4960672;28;20050;-73
2024/01/27 06:55:56;;;;;;;0.00;0.00;;;3.80;92.00;;;;;;4966806;28;20818;-73
2024/01/27 06:58:21;;;;;;;0.00;0.00;;;3.80;92.00;;;;;;4966187;28;20046;-72
2024/01/27 07:00:47;;;;;;;0.00;0.00;;;3.80;91.90;;;;;;4970066;28;20046;-72
2024/01/27 07:03:13;;;;;;;0.00;0.00;;;3.80;92.10;;;;;;4972465;28;20086;-72
2024/01/27 07:05:40;;;;;;;0.00;0.00;;;3.80;92.10;;;;;;4964858;28;20419;-72
2024/01/27 07:08:09;;;;;;;0.00;0.00;;;3.90;92.10;;;;;;4964861;28;20126;-72
2024/01/27 07:10:35;;;;;;;0.10;0.10;;;3.90;92.10;;;;;;4965827;28;20555;-72
2024/01/27 07:13:01;;;;;;;0.00;0.00;;;3.90;92.20;;;;;;4965693;28;20511;-72
2024/01/27 07:15:27;;;;;;;0.03;0.03;;;3.90;92.20;;;;;;4964971;28;20052;-72
2024/01/27 07:17:54;;;;;;;0.05;0.05;;;3.90;92.00;;;;;;4966902;28;20851;-73
2024/01/27 07:20:20;;;;;;;0.10;0.10;;;4.00;92.00;;;;;;4966329;28;20039;-72
2024/01/27 07:22:47;;;;;;;2.22;1.75;;;4.00;92.10;;;;;;4963825;28;20046;-73
2024/01/27 07:25:13;;;;;;;0.03;0.03;;;4.00;92.10;;;;;;4960713;28;20051;-73
2024/01/27 07:27:39;;;;;;;0.00;0.00;;;4.00;92.20;;;;;;4961679;28;20057;-72
2024/01/27 07:30:08;;;;;;;0.10;0.10;;;4.00;92.10;;;;;;4966634;28;20722;-73
2024/01/27 07:32:34;;;;;;;0.03;0.03;;;4.00;92.10;;;;;;4981718;28;20058;-72
2024/01/27 07:34:59;;;;;;;0.13;0.13;;;4.10;92.10;;;;;;4966455;28;20043;-72
2024/01/27 07:37:25;;;;;;;0.00;0.00;;;4.10;92.10;;;;;;4966850;28;20045;-72
2024/01/27 07:39:51;;;;;;;0.10;0.10;;;4.00;92.20;;;;;;4966430;28;20031;-72
2024/01/27 07:42:16;;;;;;;0.10;0.10;;;4.00;92.30;;;;;;4966770;28;20042;-72
2024/01/27 07:44:42;;;;;;;0.10;0.10;;;4.10;92.30;;;;;;4964519;28;20173;-72
2024/01/27 07:47:11;;;;;;;0.10;0.10;;;4.00;92.30;;;;;;4966714;28;20580;-72
2024/01/27 07:49:36;;;;;;;0.00;0.00;;;4.10;92.30;;;;;;4960013;28;20065;-72
2024/01/27 07:52:02;;;;;;;0.00;0.00;;;4.00;92.30;;;;;;4967183;28;20043;-72
2024/01/27 07:54:29;;;;;;;0.00;0.00;;;4.10;92.40;;;;;;4966788;28;20403;-73
2024/01/27 07:56:54;;;;;;;0.00;0.00;;;4.10;92.30;;;;;;4966790;28;20050;-72
2024/01/27 07:59:20;;;;;;;0.00;0.00;;;4.10;92.40;;;;;;4966770;28;20045;-69
2024/01/27 08:01:46;;;;;;;0.10;0.10;;;4.10;92.40;;;;;;4967239;28;20051;-72
2024/01/27 08:04:12;;;;;;;0.05;0.05;;;4.10;92.40;;;;;;4968879;28;20046;-71
2024/01/27 08:06:48;;;;;;;0.00;0.00;;;4.20;92.40;;;;;;4969064;28;20157;-71
2024/01/27 08:09:14;;;;;;;0.08;0.08;;;4.20;92.30;;;;;;4965047;28;20054;-70
2024/01/27 08:11:40;;;;;;;0.10;0.10;;;4.20;92.40;;;;;;4962598;28;20055;-72
2024/01/27 08:14:05;;;;;;;0.77;0.70;;;4.30;92.40;;;;;;4966953;28;20053;-72
2024/01/27 08:16:31;;;;;;;0.10;0.10;;;4.30;92.50;;;;;;4968628;28;20054;-72
2024/01/27 08:18:57;;;;;;;0.40;0.40;;;4.30;92.50;;;;;;4973106;28;20042;-72
2024/01/27 08:21:22;;;;;;;0.03;0.03;;;4.30;92.50;;;;;;4969304;28;20046;-72
2024/01/27 08:23:48;;;;;;;0.00;0.00;;;4.30;92.50;;;;;;4967681;28;20035;-72
2024/01/27 08:26:14;;;;;;;0.10;0.10;;;4.30;92.60;;;;;;4971343;28;20130;-72
2024/01/27 08:28:40;;;;;;;0.00;0.00;;;4.30;92.60;;;;;;4967380;28;20149;-72
2024/01/27 08:31:10;;;;;;;0.00;0.00;;;4.40;92.60;;;;;;4968760;28;20061;-72
2024/01/27 08:33:35;;;;;;;0.10;0.10;;;4.30;92.50;;;;;;4969051;28;20050;-72
2024/01/27 08:36:01;;;;;;;0.10;0.10;;;4.40;92.60;;;;;;4969007;28;20034;-72
2024/01/27 08:38:27;;;;;;;0.03;0.03;;;4.50;92.50;;;;;;4972954;28;20050;-72
2024/01/27 08:40:53;;;;;;;0.10;0.10;;;4.50;92.50;;;;;;4968514;28;20054;-72
2024/01/27 08:43:19;;;;;;;0.57;0.57;;;4.50;92.50;;;;;;4968812;28;20051;-72
2024/01/27 08:45:44;;;;;;;1.80;1.17;;;4.50;92.50;;;;;;4964882;28;20133;-72
2024/01/27 08:48:11;;;;;;;4.22;1.77;;;4.50;92.50;;;;;;4968550;28;20575;-72
2024/01/27 08:50:37;;;;;;;0.00;0.00;;;4.60;92.60;;;;;;4968452;28;20051;-72
2024/01/27 08:53:03;;;;;;;1.92;1.83;;;4.60;92.60;;;;;;4968338;28;20054;-72
2024/01/27 08:55:28;;;;;;;0.00;0.00;;;4.70;92.50;;;;;;4966072;28;20043;-72
2024/01/27 08:57:56;;;;;;;0.20;0.20;;;4.70;92.50;;;;;;4967003;28;20043;-69
2024/01/27 09:00:21;;;;;;;0.00;0.00;;;4.90;92.80;;;;;;4965993;28;20388;-72
2024/01/27 09:02:47;;;;;;;5.47;1.23;;;4.90;92.60;;;;;;4962999;28;20109;-72
2024/01/27 09:05:13;;;;;;;0.00;0.00;;;5.00;92.50;;;;;;4967292;28;20039;-71
2024/01/27 09:07:39;;;;;;;0.20;0.20;;;5.00;92.50;;;;;;4964508;28;20047;-72
2024/01/27 09:10:05;;;;;;;0.00;0.00;;;5.10;92.40;;;;;;4957738;28;20377;-73
2024/01/27 09:12:31;;;;;;;0.10;0.10;;;5.10;92.30;;;;;;4967444;28;20092;-70
2024/01/27 09:14:56;;;;;;;0.00;0.00;;;5.10;92.10;;;;;;4964570;28;20078;-70
2024/01/27 09:17:22;;;;;;;13.77;1.10;;;5.20;92.40;;;;;;4967622;28;20415;-71
2024/01/27 09:19:48;;;;;;;0.10;0.10;;;5.50;92.90;;;;;;4961892;28;20047;-71
2024/01/27 09:22:13;;;;;;;0.10;0.10;;;5.50;92.00;;;;;;4972198;28;20045;-72
2024/01/27 09:24:40;;;;;;;0.00;0.00;;;5.50;91.90;;;;;;4966945;28;20046;-72
2024/01/27 09:27:05;;;;;;;0.00;0.00;;;5.30;91.60;;;;;;4967381;28;20418;-67
2024/01/27 09:29:31;;;;;;;0.00;0.00;;;5.40;91.80;;;;;;4975356;28;20042;-71
2024/01/27 09:31:57;;;;;;;0.10;0.10;;;5.40;91.90;;;;;;4979608;28;20859;-71
2024/01/27 09:34:22;;;;;;;0.00;0.00;;;5.40;91.90;;;;;;4960663;28;20043;-72
2024/01/27 09:36:48;;;;;;;0.00;0.00;;;5.50;91.90;;;;;;4952921;28;20136;-72
2024/01/27 09:39:14;;;;;;;0.00;0.00;;;5.50;91.90;;;;;;4983394;28;20080;-71
2024/01/27 09:41:40;;;;;;;2.92;2.72;;;5.50;91.90;;;;;;4972662;28;20497;-72
2024/01/27 09:44:06;;;;;;;0.00;0.00;;;5.60;92.00;;;;;;4962101;28;20415;-65
2024/01/27 09:46:32;;;;;;;0.00;0.00;;;5.50;92.00;;;;;;4966638;28;20045;-70
2024/01/27 09:48:58;;;;;;;0.00;0.00;;;5.80;92.10;;;;;;4956749;28;20050;-71
2024/01/27 09:51:25;;;;;;;0.00;0.00;;;5.90;91.90;;;;;;4962511;28;20137;-71
2024/01/27 09:53:52;;;;;;;0.10;0.10;;;5.80;91.80;;;;;;4961089;28;20117;-71
2024/01/27 09:56:18;;;;;;;0.85;0.85;;;5.90;91.90;;;;;;4964883;28;20051;-71
2024/01/27 09:58:45;;;;;;;0.10;0.10;;;5.90;91.80;;;;;;4956476;28;20058;-71
2024/01/27 10:01:12;;;;;;;0.20;0.20;;;6.00;91.80;;;;;;4964428;28;20049;-70
2024/01/27 10:03:41;;;;;;;0.10;0.10;;;6.00;91.80;;;;;;4959805;28;20055;-70
2024/01/27 10:06:10;;;;;;;0.10;0.10;;;6.10;91.60;;;;;;4962598;28;20554;-70
2024/01/27 10:08:37;;;;;;;0.40;0.40;;;6.10;91.70;;;;;;4968301;28;20130;-71
2024/01/27 10:11:11;;;;;;;0.00;0.00;;;6.10;91.60;;;;;;4983978;28;20054;-70
2024/01/27 10:13:37;;;;;;;0.00;0.00;;;6.20;91.60;;;;;;4964568;28;20039;-71
2024/01/27 10:16:05;;;;;;;0.03;0.03;;;6.20;91.30;;;;;;4959532;28;20049;-70
2024/01/27 10:18:31;;;;;;;0.00;0.00;;;6.20;91.40;;;;;;4970882;28;20100;-70
2024/01/27 10:20:57;;;;;;;0.00;0.00;;;6.30;91.40;;;;;;4966637;28;20038;-70
2024/01/27 10:23:23;;;;;;;0.00;0.00;;;6.30;91.40;;;;;;4959301;28;20074;-70
2024/01/27 10:25:49;;;;;;;0.20;0.20;;;6.40;91.30;;;;;;4968419;28;20047;-70
2024/01/27 10:28:15;;;;;;;0.10;0.10;;;6.40;91.40;;;;;;4957289;28;20051;-70
2024/01/27 10:30:41;;;;;;;0.00;0.00;;;6.40;91.30;;;;;;4959352;28;20054;-70
2024/01/27 10:33:13;;;;;;;1.08;1.00;;;6.50;91.10;;;;;;4962945;28;20101;-69
2024/01/27 10:35:39;;;;;;;0.63;0.28;;;6.60;91.00;;;;;;4958001;28;20047;-70
2024/01/27 10:38:05;;;;;;;0.20;0.20;;;6.60;90.90;;;;;;4973447;28;20045;-70
2024/01/27 10:40:31;;;;;;;0.10;0.10;;;6.60;90.60;;;;;;4965642;28;20043;-69
2024/01/27 10:43:07;;;;;;;0.52;0.52;;;6.60;90.60;;;;;;4964345;28;20046;-69
2024/01/27 10:45:41;;;;;;;0.00;0.00;;;6.60;90.80;;;;;;4970730;28;20050;-69
2024/01/27 10:48:10;;;;;;;0.10;0.10;;;6.60;90.70;;;;;;4968894;28;20047;-70
2024/01/27 10:50:38;;;;;;;1.17;1.17;;;6.70;90.70;;;;;;4982165;28;20050;-70
2024/01/27 10:53:08;;;;;;;0.00;0.00;;;6.80;90.40;;;;;;4956818;28;20206;-70
2024/01/27 10:55:37;;;;;;;0.00;0.00;;;6.80;90.50;;;;;;4958582;28;20157;-70
2024/01/27 10:58:03;;;;;;;0.00;0.00;;;6.80;90.40;;;;;;4962025;28;20074;-70
2024/01/27 11:00:30;;;;;;;0.77;0.77;;;6.90;90.40;;;;;;4968374;28;20415;-70
2024/01/27 11:03:01;;;;;;;0.05;0.05;;;6.90;90.30;;;;;;4973169;28;20506;-70
2024/01/27 11:05:29;;;;;;;0.80;0.80;;;6.90;90.20;;;;;;4971362;28;20506;-70
2024/01/27 11:07:56;;;;;;;0.10;0.10;;;6.90;90.20;;;;;;4970292;28;20133;-70
2024/01/27 11:10:23;;;;;;;0.22;0.22;;;7.00;90.00;;;;;;4975981;28;20078;-70
2024/01/27 11:12:50;;;;;;;8.43;3.30;;;7.10;89.90;;;;;;4974552;28;20042;-70
2024/01/27 11:15:16;;;;;;;0.00;0.00;;;7.10;90.00;;;;;;4975304;28;20039;-71
2024/01/27 11:17:42;;;;;;;0.00;0.00;;;7.10;89.80;;;;;;4974903;28;20045;-71
2024/01/27 11:20:16;;;;;;;29.10;5.68;;;7.20;89.80;;;;;;4980354;28;20411;-70
2024/01/27 11:22:43;;;;;;;1.40;1.33;;;7.30;89.60;;;;;;4979241;28;20038;-71
2024/01/27 11:25:12;;;;;;;0.10;0.10;;;7.20;89.70;;;;;;4977069;28;20061;-71
2024/01/27 11:27:41;;;;;;;0.10;0.10;;;7.30;89.50;;;;;;4975434;28;20070;-71
2024/01/27 11:30:33;;;;;;;0.00;0.00;;;7.40;89.70;;;;;;4976717;28;20108;-71
2024/01/27 11:33:01;;;;;;;0.00;0.00;;;7.30;89.30;;;;;;4978999;28;20042;-72
2024/01/27 11:35:27;;;;;;;0.00;0.00;;;7.30;89.30;;;;;;4977158;28;20196;-68
2024/01/27 11:37:54;;;;;;;0.22;0.22;;;7.40;89.40;;;;;;4980810;28;20082;-72
2024/01/27 11:40:19;;;;;;;0.03;0.03;;;7.40;89.40;;;;;;4978593;28;20038;-72
2024/01/27 11:42:59;;;;;;;0.00;0.00;;;7.40;89.10;;;;;;4977176;28;20053;-72
2024/01/27 11:45:25;;;;;;;0.00;0.00;;;7.40;89.10;;;;;;4977118;28;20411;-68
2024/01/27 11:47:51;;;;;;;0.10;0.10;;;7.40;89.20;;;;;;4978758;28;20043;-69
2024/01/27 11:50:20;;;;;;;0.10;0.10;;;7.50;89.20;;;;;;4980319;28;20038;-69
2024/01/27 11:52:46;;;;;;;0.00;0.00;;;7.40;89.20;;;;;;4977117;28;20043;-71
2024/01/27 11:55:14;;;;;;;0.75;0.75;;;7.40;89.20;;;;;;4979550;28;20046;-70
2024/01/27 11:57:41;;;;;;;0.00;0.00;;;7.40;89.30;;;;;;4977840;28;20061;-70
2024/01/27 12:00:09;;;;;;;0.00;0.00;;;7.50;89.10;;;;;;4978818;28;20480;-70
2024/01/27 12:02:35;;;;;;;0.00;0.00;;;7.50;89.20;;;;;;4979066;28;20049;-70
2024/01/27 12:05:01;;;;;;;0.28;0.25;;;7.60;89.30;;;;;;4970590;28;20050;-70
2024/01/27 12:07:27;;;;;;;0.43;0.43;;;7.60;89.30;;;;;;4965100;28;20420;-70
2024/01/27 12:09:53;;;;;;;1.08;0.68;;;7.70;89.20;;;;;;4970618;28;20049;-70
2024/01/27 12:12:19;;;;;;;0.03;0.03;;;7.60;89.20;;;;;;4966910;28;20058;-70
2024/01/27 12:14:50;;;;;;;3.17;1.77;;;7.80;89.20;;;;;;4965746;28;20051;-70
2024/01/27 12:17:16;;;;;;;0.65;0.65;;;7.80;89.00;;;;;;4964028;28;20105;-70
2024/01/27 12:19:51;;;;;;;0.00;0.00;;;7.90;88.80;;;;;;4963424;28;20050;-70
2024/01/27 12:22:26;;;;;;;0.00;0.00;;;7.80;88.30;;;;;;4957611;28;20077;-71
2024/01/27 12:24:52;;;;;;;3.63;2.15;;;7.80;88.40;;;;;;4965706;28;20117;-70
2024/01/27 12:27:18;;;;;;;0.00;0.00;;;7.80;88.50;;;;;;4970845;28;20038;-70
2024/01/27 12:29:44;;;;;;;0.10;0.10;;;7.80;88.10;;;;;;4969776;28;20125;-70
2024/01/27 12:32:09;;;;;;;0.30;0.30;;;7.90;88.40;;;;;;4969730;28;20093;-70
2024/01/27 12:34:42;;;;;;;0.00;0.00;;;7.80;88.40;;;;;;4970717;28;20047;-70
2024/01/27 12:37:10;;;;;;;10.50;2.30;;;7.90;88.30;;;;;;4973466;28;20039;-70
2024/01/27 12:39:36;;;;;;;0.00;0.00;;;7.90;88.40;;;;;;4985022;28;20444;-70
2024/01/27 12:42:02;;;;;;;0.10;0.10;;;7.80;88.20;;;;;;4970073;28;20101;-70
2024/01/27 12:44:27;;;;;;;0.00;0.00;;;7.80;87.80;;;;;;4969897;28;20101;-70
2024/01/27 12:46:53;;;;;;;0.13;0.13;;;7.90;88.00;;;;;;4969997;28;20057;-69
2024/01/27 12:49:19;;;;;;;0.20;0.20;;;7.90;88.00;;;;;;4973705;28;20488;-69
2024/01/27 12:51:47;;;;;;;0.00;0.00;;;7.90;88.00;;;;;;4990144;28;20050;-69
2024/01/27 12:54:12;;;;;;;0.32;0.32;;;7.90;87.70;;;;;;4969381;28;20042;-69
2024/01/27 12:56:38;;;;;;;0.17;0.17;;;7.90;87.50;;;;;;4971512;28;20408;-71